sensor_id;sensor_type;location;lat;lon;timestamp;P1;durP1;ratioP1;P2;durP2;ratioP2
11691;SDS011;33659;42.672;23.354;2023-11-21T00:00:12;8.87;;;5.13;;
11691;SDS011;33659;42.672;23.354;2023-11-21T00:02:42;6.57;;;3.80;;
11691;SDS011;33659;42.672;23.354;2023-11-21T00:05:10;6.03;;;4.50;;
11691;SDS011;33659;42.672;23.354;2023-11-21T00:07:39;6.37;;;4.40;;
11691;SDS011;33659;42.672;23.354;2023-11-21T00:10:06;8.53;;;4.87;;
11691;SDS011;33659;42.672;23.354;2023-11-21T00:12:33;7.93;;;4.53;;
11691;SDS011;33659;42.672;23.354;2023-11-21T00:15:00;7.50;;;4.73;;
11691;SDS011;33659;42.672;23.354;2023-11-21T00:17:27;8.00;;;4.73;;
11691;SDS011;33659;42.672;23.354;2023-11-21T00:19:56;6.63;;;4.27;;
11691;SDS011;33659;42.672;23.354;2023-11-21T00:22:22;4.97;;;2.90;;
11691;SDS011;33659;42.672;23.354;2023-11-21T00:24:49;4.97;;;2.53;;
11691;SDS011;33659;42.672;23.354;2023-11-21T00:27:16;4.13;;;3.20;;
11691;SDS011;33659;42.672;23.354;2023-11-21T00:29:42;4.37;;;3.30;;
11691;SDS011;33659;42.672;23.354;2023-11-21T00:32:09;2.57;;;2.37;;
11691;SDS011;33659;42.672;23.354;2023-11-21T00:34:36;4.53;;;3.30;;
11691;SDS011;33659;42.672;23.354;2023-11-21T00:37:04;6.90;;;4.03;;
11691;SDS011;33659;42.672;23.354;2023-11-21T00:39:30;5.97;;;4.10;;
11691;SDS011;33659;42.672;23.354;2023-11-21T00:41:58;8.53;;;4.20;;
11691;SDS011;33659;42.672;23.354;2023-11-21T00:44:24;6.73;;;4.10;;
11691;SDS011;33659;42.672;23.354;2023-11-21T00:46:52;6.40;;;4.40;;
11691;SDS011;33659;42.672;23.354;2023-11-21T00:49:19;12.53;;;4.77;;
11691;SDS011;33659;42.672;23.354;2023-11-21T00:51:46;10.73;;;5.13;;
11691;SDS011;33659;42.672;23.354;2023-11-21T00:54:14;6.00;;;5.30;;
11691;SDS011;33659;42.672;23.354;2023-11-21T00:56:42;12.47;;;6.60;;
11691;SDS011;33659;42.672;23.354;2023-11-21T00:59:09;12.67;;;7.53;;
11691;SDS011;33659;42.672;23.354;2023-11-21T01:01:35;13.93;;;8.60;;
11691;SDS011;33659;42.672;23.354;2023-11-21T01:04:03;18.63;;;8.60;;
11691;SDS011;33659;42.672;23.354;2023-11-21T01:06:31;13.43;;;8.70;;
11691;SDS011;33659;42.672;23.354;2023-11-21T01:08:58;16.83;;;9.50;;
11691;SDS011;33659;42.672;23.354;2023-11-21T01:11:26;22.07;;;12.90;;
11691;SDS011;33659;42.672;23.354;2023-11-21T01:13:53;26.87;;;13.83;;
11691;SDS011;33659;42.672;23.354;2023-11-21T01:16:20;28.07;;;13.50;;
11691;SDS011;33659;42.672;23.354;2023-11-21T01:18:46;25.53;;;12.80;;
11691;SDS011;33659;42.672;23.354;2023-11-21T01:21:13;21.83;;;12.30;;
11691;SDS011;33659;42.672;23.354;2023-11-21T01:23:41;22.60;;;12.33;;
11691;SDS011;33659;42.672;23.354;2023-11-21T01:26:08;25.77;;;12.77;;
11691;SDS011;33659;42.672;23.354;2023-11-21T01:28:36;18.50;;;11.67;;
11691;SDS011;33659;42.672;23.354;2023-11-21T01:31:03;22.13;;;11.67;;
11691;SDS011;33659;42.672;23.354;2023-11-21T01:33:30;19.27;;;11.43;;
11691;SDS011;33659;42.672;23.354;2023-11-21T01:35:56;24.30;;;11.47;;
11691;SDS011;33659;42.672;23.354;2023-11-21T01:38:23;25.97;;;12.43;;
11691;SDS011;33659;42.672;23.354;2023-11-21T01:40:50;21.63;;;12.07;;
11691;SDS011;33659;42.672;23.354;2023-11-21T01:43:16;29.97;;;12.90;;
11691;SDS011;33659;42.672;23.354;2023-11-21T01:45:44;21.23;;;12.63;;
11691;SDS011;33659;42.672;23.354;2023-11-21T01:48:11;22.30;;;12.23;;
11691;SDS011;33659;42.672;23.354;2023-11-21T01:50:41;35.67;;;13.63;;
11691;SDS011;33659;42.672;23.354;2023-11-21T01:53:10;24.80;;;12.67;;
11691;SDS011;33659;42.672;23.354;2023-11-21T01:55:38;25.67;;;14.40;;
11691;SDS011;33659;42.672;23.354;2023-11-21T01:58:07;27.27;;;13.57;;
11691;SDS011;33659;42.672;23.354;2023-11-21T02:00:34;21.07;;;13.30;;
11691;SDS011;33659;42.672;23.354;2023-11-21T02:03:04;19.37;;;11.50;;
11691;SDS011;33659;42.672;23.354;2023-11-21T02:05:32;25.87;;;12.23;;
11691;SDS011;33659;42.672;23.354;2023-11-21T02:07:59;19.33;;;11.57;;
11691;SDS011;33659;42.672;23.354;2023-11-21T02:10:25;19.37;;;11.23;;
11691;SDS011;33659;42.672;23.354;2023-11-21T02:12:52;20.83;;;13.03;;
11691;SDS011;33659;42.672;23.354;2023-11-21T02:15:19;20.43;;;12.70;;
11691;SDS011;33659;42.672;23.354;2023-11-21T02:17:46;25.13;;;12.70;;
11691;SDS011;33659;42.672;23.354;2023-11-21T02:20:17;20.70;;;11.97;;
11691;SDS011;33659;42.672;23.354;2023-11-21T02:22:48;21.93;;;12.53;;
11691;SDS011;33659;42.672;23.354;2023-11-21T02:25:17;18.23;;;11.57;;
11691;SDS011;33659;42.672;23.354;2023-11-21T02:27:44;21.17;;;11.67;;
11691;SDS011;33659;42.672;23.354;2023-11-21T02:30:13;19.40;;;11.53;;
11691;SDS011;33659;42.672;23.354;2023-11-21T02:32:41;21.33;;;11.80;;
11691;SDS011;33659;42.672;23.354;2023-11-21T02:35:08;19.13;;;11.87;;
11691;SDS011;33659;42.672;23.354;2023-11-21T02:37:37;18.27;;;10.50;;
11691;SDS011;33659;42.672;23.354;2023-11-21T02:40:06;16.93;;;10.87;;
11691;SDS011;33659;42.672;23.354;2023-11-21T02:42:34;15.17;;;10.47;;
11691;SDS011;33659;42.672;23.354;2023-11-21T02:45:01;16.83;;;9.87;;
11691;SDS011;33659;42.672;23.354;2023-11-21T02:47:28;21.93;;;10.80;;
11691;SDS011;33659;42.672;23.354;2023-11-21T02:49:55;21.70;;;10.60;;
11691;SDS011;33659;42.672;23.354;2023-11-21T02:52:22;18.23;;;10.47;;
11691;SDS011;33659;42.672;23.354;2023-11-21T02:54:48;18.57;;;10.73;;
11691;SDS011;33659;42.672;23.354;2023-11-21T02:57:16;21.60;;;11.73;;
11691;SDS011;33659;42.672;23.354;2023-11-21T02:59:43;22.63;;;10.87;;
11691;SDS011;33659;42.672;23.354;2023-11-21T03:02:10;21.37;;;11.07;;
11691;SDS011;33659;42.672;23.354;2023-11-21T03:04:37;21.23;;;12.30;;
11691;SDS011;33659;42.672;23.354;2023-11-21T03:07:04;21.77;;;11.77;;
11691;SDS011;33659;42.672;23.354;2023-11-21T03:09:30;18.20;;;10.67;;
11691;SDS011;33659;42.672;23.354;2023-11-21T03:11:57;21.63;;;10.63;;
11691;SDS011;33659;42.672;23.354;2023-11-21T03:14:25;18.27;;;10.60;;
11691;SDS011;33659;42.672;23.354;2023-11-21T03:16:52;22.23;;;11.23;;
11691;SDS011;33659;42.672;23.354;2023-11-21T03:19:19;22.10;;;11.63;;
11691;SDS011;33659;42.672;23.354;2023-11-21T03:21:45;19.53;;;11.53;;
11691;SDS011;33659;42.672;23.354;2023-11-21T03:24:12;16.80;;;10.50;;
11691;SDS011;33659;42.672;23.354;2023-11-21T03:26:43;20.90;;;11.40;;
11691;SDS011;33659;42.672;23.354;2023-11-21T03:29:10;20.23;;;10.40;;
11691;SDS011;33659;42.672;23.354;2023-11-21T03:31:38;24.07;;;12.67;;
11691;SDS011;33659;42.672;23.354;2023-11-21T03:34:05;22.57;;;11.10;;
11691;SDS011;33659;42.672;23.354;2023-11-21T03:36:32;18.83;;;11.70;;
11691;SDS011;33659;42.672;23.354;2023-11-21T03:38:58;17.20;;;11.07;;
11691;SDS011;33659;42.672;23.354;2023-11-21T03:41:25;23.07;;;12.73;;
11691;SDS011;33659;42.672;23.354;2023-11-21T03:43:52;25.37;;;12.37;;
11691;SDS011;33659;42.672;23.354;2023-11-21T03:46:18;21.57;;;11.73;;
11691;SDS011;33659;42.672;23.354;2023-11-21T03:48:46;19.03;;;11.70;;
11691;SDS011;33659;42.672;23.354;2023-11-21T03:51:13;19.70;;;12.80;;
11691;SDS011;33659;42.672;23.354;2023-11-21T03:53:40;19.67;;;11.60;;
11691;SDS011;33659;42.672;23.354;2023-11-21T03:56:07;18.80;;;11.67;;
11691;SDS011;33659;42.672;23.354;2023-11-21T03:58:34;20.27;;;12.23;;
11691;SDS011;33659;42.672;23.354;2023-11-21T04:01:00;20.30;;;12.27;;
11691;SDS011;33659;42.672;23.354;2023-11-21T04:03:27;21.43;;;12.10;;
11691;SDS011;33659;42.672;23.354;2023-11-21T04:05:56;22.40;;;12.27;;
11691;SDS011;33659;42.672;23.354;2023-11-21T04:08:23;22.53;;;11.47;;
11691;SDS011;33659;42.672;23.354;2023-11-21T04:10:51;25.10;;;12.03;;
11691;SDS011;33659;42.672;23.354;2023-11-21T04:13:18;21.93;;;10.90;;
11691;SDS011;33659;42.672;23.354;2023-11-21T04:15:45;16.10;;;9.83;;
11691;SDS011;33659;42.672;23.354;2023-11-21T04:18:12;18.60;;;9.73;;
11691;SDS011;33659;42.672;23.354;2023-11-21T04:20:38;19.47;;;9.63;;
11691;SDS011;33659;42.672;23.354;2023-11-21T04:23:06;16.87;;;9.53;;
11691;SDS011;33659;42.672;23.354;2023-11-21T04:25:35;15.07;;;10.40;;
11691;SDS011;33659;42.672;23.354;2023-11-21T04:28:02;20.23;;;11.07;;
11691;SDS011;33659;42.672;23.354;2023-11-21T04:30:29;17.67;;;9.63;;
11691;SDS011;33659;42.672;23.354;2023-11-21T04:32:56;17.07;;;10.13;;
11691;SDS011;33659;42.672;23.354;2023-11-21T04:35:22;18.03;;;9.63;;
11691;SDS011;33659;42.672;23.354;2023-11-21T04:37:49;16.53;;;9.37;;
11691;SDS011;33659;42.672;23.354;2023-11-21T04:40:17;18.20;;;9.70;;
11691;SDS011;33659;42.672;23.354;2023-11-21T04:42:45;16.73;;;8.97;;
11691;SDS011;33659;42.672;23.354;2023-11-21T04:45:13;15.73;;;9.40;;
11691;SDS011;33659;42.672;23.354;2023-11-21T04:47:40;17.30;;;9.40;;
11691;SDS011;33659;42.672;23.354;2023-11-21T04:50:09;15.47;;;8.87;;
11691;SDS011;33659;42.672;23.354;2023-11-21T04:52:36;11.63;;;7.83;;
11691;SDS011;33659;42.672;23.354;2023-11-21T04:55:02;17.37;;;9.10;;
11691;SDS011;33659;42.672;23.354;2023-11-21T04:57:33;11.57;;;8.40;;
11691;SDS011;33659;42.672;23.354;2023-11-21T05:00:00;10.03;;;8.07;;
11691;SDS011;33659;42.672;23.354;2023-11-21T05:02:30;11.73;;;7.83;;
11691;SDS011;33659;42.672;23.354;2023-11-21T05:04:59;13.17;;;8.47;;
11691;SDS011;33659;42.672;23.354;2023-11-21T05:07:25;12.03;;;8.00;;
11691;SDS011;33659;42.672;23.354;2023-11-21T05:09:53;18.13;;;10.50;;
11691;SDS011;33659;42.672;23.354;2023-11-21T05:12:21;12.17;;;7.10;;
11691;SDS011;33659;42.672;23.354;2023-11-21T05:14:50;14.83;;;8.50;;
11691;SDS011;33659;42.672;23.354;2023-11-21T05:17:17;10.40;;;7.23;;
11691;SDS011;33659;42.672;23.354;2023-11-21T05:19:43;19.33;;;10.67;;
11691;SDS011;33659;42.672;23.354;2023-11-21T05:22:11;13.17;;;8.53;;
11691;SDS011;33659;42.672;23.354;2023-11-21T05:24:38;10.93;;;7.73;;
11691;SDS011;33659;42.672;23.354;2023-11-21T05:27:05;12.80;;;8.23;;
11691;SDS011;33659;42.672;23.354;2023-11-21T05:29:31;17.87;;;9.93;;
11691;SDS011;33659;42.672;23.354;2023-11-21T05:31:59;16.80;;;9.87;;
11691;SDS011;33659;42.672;23.354;2023-11-21T05:34:26;14.40;;;10.37;;
11691;SDS011;33659;42.672;23.354;2023-11-21T05:36:53;17.37;;;9.67;;
11691;SDS011;33659;42.672;23.354;2023-11-21T05:39:20;23.03;;;10.60;;
11691;SDS011;33659;42.672;23.354;2023-11-21T05:41:47;18.27;;;9.70;;
11691;SDS011;33659;42.672;23.354;2023-11-21T05:44:13;18.57;;;10.23;;
11691;SDS011;33659;42.672;23.354;2023-11-21T05:46:40;20.90;;;9.60;;
11691;SDS011;33659;42.672;23.354;2023-11-21T05:49:09;14.97;;;9.80;;
11691;SDS011;33659;42.672;23.354;2023-11-21T05:51:36;18.50;;;9.50;;
11691;SDS011;33659;42.672;23.354;2023-11-21T05:54:03;15.90;;;10.50;;
11691;SDS011;33659;42.672;23.354;2023-11-21T05:56:30;21.80;;;11.23;;
11691;SDS011;33659;42.672;23.354;2023-11-21T05:58:57;20.00;;;11.77;;
11691;SDS011;33659;42.672;23.354;2023-11-21T06:01:24;25.17;;;12.53;;
11691;SDS011;33659;42.672;23.354;2023-11-21T06:03:53;20.20;;;12.20;;
11691;SDS011;33659;42.672;23.354;2023-11-21T06:06:21;20.97;;;11.80;;
11691;SDS011;33659;42.672;23.354;2023-11-21T06:08:49;22.07;;;12.03;;
11691;SDS011;33659;42.672;23.354;2023-11-21T06:11:16;22.53;;;12.63;;
11691;SDS011;33659;42.672;23.354;2023-11-21T06:13:43;23.80;;;11.40;;
11691;SDS011;33659;42.672;23.354;2023-11-21T06:16:10;17.87;;;12.30;;
11691;SDS011;33659;42.672;23.354;2023-11-21T06:18:39;20.60;;;11.67;;
11691;SDS011;33659;42.672;23.354;2023-11-21T06:21:08;20.73;;;10.50;;
11691;SDS011;33659;42.672;23.354;2023-11-21T06:23:37;22.20;;;11.00;;
11691;SDS011;33659;42.672;23.354;2023-11-21T06:26:04;23.50;;;10.50;;
11691;SDS011;33659;42.672;23.354;2023-11-21T06:28:31;16.63;;;11.17;;
11691;SDS011;33659;42.672;23.354;2023-11-21T06:30:58;17.83;;;10.70;;
11691;SDS011;33659;42.672;23.354;2023-11-21T06:33:30;14.77;;;9.93;;
11691;SDS011;33659;42.672;23.354;2023-11-21T06:35:56;21.20;;;9.90;;
11691;SDS011;33659;42.672;23.354;2023-11-21T06:38:23;18.03;;;10.10;;
11691;SDS011;33659;42.672;23.354;2023-11-21T06:40:56;23.00;;;10.60;;
11691;SDS011;33659;42.672;23.354;2023-11-21T06:43:23;20.00;;;9.77;;
11691;SDS011;33659;42.672;23.354;2023-11-21T06:45:49;13.87;;;9.53;;
11691;SDS011;33659;42.672;23.354;2023-11-21T06:48:16;14.63;;;9.77;;
11691;SDS011;33659;42.672;23.354;2023-11-21T06:50:43;17.97;;;10.40;;
11691;SDS011;33659;42.672;23.354;2023-11-21T06:53:11;17.67;;;10.33;;
11691;SDS011;33659;42.672;23.354;2023-11-21T06:55:38;18.33;;;10.00;;
11691;SDS011;33659;42.672;23.354;2023-11-21T06:58:06;12.80;;;9.33;;
11691;SDS011;33659;42.672;23.354;2023-11-21T07:00:33;17.97;;;10.27;;
11691;SDS011;33659;42.672;23.354;2023-11-21T07:03:00;15.77;;;9.93;;
11691;SDS011;33659;42.672;23.354;2023-11-21T07:05:27;17.50;;;9.97;;
11691;SDS011;33659;42.672;23.354;2023-11-21T07:07:53;24.20;;;10.90;;
11691;SDS011;33659;42.672;23.354;2023-11-21T07:10:20;14.50;;;9.33;;
11691;SDS011;33659;42.672;23.354;2023-11-21T07:12:47;19.30;;;10.60;;
11691;SDS011;33659;42.672;23.354;2023-11-21T07:15:15;14.60;;;8.50;;
11691;SDS011;33659;42.672;23.354;2023-11-21T07:17:42;14.57;;;8.13;;
11691;SDS011;33659;42.672;23.354;2023-11-21T07:20:09;16.57;;;9.43;;
11691;SDS011;33659;42.672;23.354;2023-11-21T07:22:37;16.20;;;10.27;;
11691;SDS011;33659;42.672;23.354;2023-11-21T07:25:04;19.17;;;9.40;;
11691;SDS011;33659;42.672;23.354;2023-11-21T07:27:32;12.13;;;8.77;;
11691;SDS011;33659;42.672;23.354;2023-11-21T07:30:01;14.40;;;8.83;;
11691;SDS011;33659;42.672;23.354;2023-11-21T07:32:31;16.77;;;8.47;;
11691;SDS011;33659;42.672;23.354;2023-11-21T07:34:57;17.73;;;8.97;;
11691;SDS011;33659;42.672;23.354;2023-11-21T07:37:26;17.17;;;8.40;;
11691;SDS011;33659;42.672;23.354;2023-11-21T07:39:54;13.07;;;8.00;;
11691;SDS011;33659;42.672;23.354;2023-11-21T07:42:21;16.77;;;8.43;;
11691;SDS011;33659;42.672;23.354;2023-11-21T07:44:52;13.90;;;9.10;;
11691;SDS011;33659;42.672;23.354;2023-11-21T07:47:19;19.27;;;8.77;;
11691;SDS011;33659;42.672;23.354;2023-11-21T07:49:47;12.83;;;7.90;;
11691;SDS011;33659;42.672;23.354;2023-11-21T07:52:13;15.33;;;8.80;;
11691;SDS011;33659;42.672;23.354;2023-11-21T07:54:41;12.67;;;7.93;;
11691;SDS011;33659;42.672;23.354;2023-11-21T07:57:08;13.60;;;8.93;;
11691;SDS011;33659;42.672;23.354;2023-11-21T07:59:38;11.77;;;8.33;;
11691;SDS011;33659;42.672;23.354;2023-11-21T08:02:05;17.87;;;8.87;;
11691;SDS011;33659;42.672;23.354;2023-11-21T08:04:32;18.20;;;8.90;;
11691;SDS011;33659;42.672;23.354;2023-11-21T08:07:00;13.63;;;9.13;;
11691;SDS011;33659;42.672;23.354;2023-11-21T08:09:28;13.30;;;8.00;;
11691;SDS011;33659;42.672;23.354;2023-11-21T08:11:55;14.50;;;8.40;;
11691;SDS011;33659;42.672;23.354;2023-11-21T08:14:22;16.23;;;8.77;;
11691;SDS011;33659;42.672;23.354;2023-11-21T08:16:50;15.07;;;8.17;;
11691;SDS011;33659;42.672;23.354;2023-11-21T08:19:17;13.73;;;8.20;;
11691;SDS011;33659;42.672;23.354;2023-11-21T08:21:44;16.20;;;8.33;;
11691;SDS011;33659;42.672;23.354;2023-11-21T08:24:12;17.83;;;9.10;;
11691;SDS011;33659;42.672;23.354;2023-11-21T08:26:39;16.77;;;8.10;;
11691;SDS011;33659;42.672;23.354;2023-11-21T08:29:06;9.60;;;7.00;;
11691;SDS011;33659;42.672;23.354;2023-11-21T08:31:33;10.97;;;7.70;;
11691;SDS011;33659;42.672;23.354;2023-11-21T08:34:00;15.07;;;7.97;;
11691;SDS011;33659;42.672;23.354;2023-11-21T08:36:28;12.37;;;8.07;;
11691;SDS011;33659;42.672;23.354;2023-11-21T08:38:56;10.67;;;7.67;;
11691;SDS011;33659;42.672;23.354;2023-11-21T08:41:24;14.13;;;7.70;;
11691;SDS011;33659;42.672;23.354;2023-11-21T08:43:53;11.40;;;7.73;;
11691;SDS011;33659;42.672;23.354;2023-11-21T08:46:20;12.47;;;7.47;;
11691;SDS011;33659;42.672;23.354;2023-11-21T08:48:47;11.70;;;7.97;;
11691;SDS011;33659;42.672;23.354;2023-11-21T08:51:17;15.63;;;7.93;;
11691;SDS011;33659;42.672;23.354;2023-11-21T08:53:44;13.47;;;8.30;;
11691;SDS011;33659;42.672;23.354;2023-11-21T08:56:12;15.27;;;9.67;;
11691;SDS011;33659;42.672;23.354;2023-11-21T08:58:40;15.83;;;9.23;;
11691;SDS011;33659;42.672;23.354;2023-11-21T09:01:07;15.00;;;9.73;;
11691;SDS011;33659;42.672;23.354;2023-11-21T09:03:34;17.73;;;10.67;;
11691;SDS011;33659;42.672;23.354;2023-11-21T09:06:01;20.53;;;12.00;;
11691;SDS011;33659;42.672;23.354;2023-11-21T09:08:28;23.67;;;12.67;;
11691;SDS011;33659;42.672;23.354;2023-11-21T09:10:55;27.53;;;13.27;;
11691;SDS011;33659;42.672;23.354;2023-11-21T09:13:22;23.33;;;14.10;;
11691;SDS011;33659;42.672;23.354;2023-11-21T09:15:51;23.00;;;14.43;;
11691;SDS011;33659;42.672;23.354;2023-11-21T09:18:18;30.43;;;15.70;;
11691;SDS011;33659;42.672;23.354;2023-11-21T09:20:45;32.13;;;16.87;;
11691;SDS011;33659;42.672;23.354;2023-11-21T09:23:12;29.47;;;17.07;;
11691;SDS011;33659;42.672;23.354;2023-11-21T09:25:38;31.10;;;18.47;;
11691;SDS011;33659;42.672;23.354;2023-11-21T09:28:05;29.37;;;17.83;;
11691;SDS011;33659;42.672;23.354;2023-11-21T09:30:33;26.30;;;16.20;;
11691;SDS011;33659;42.672;23.354;2023-11-21T09:33:01;26.20;;;16.57;;
11691;SDS011;33659;42.672;23.354;2023-11-21T09:35:30;35.33;;;17.87;;
11691;SDS011;33659;42.672;23.354;2023-11-21T09:37:57;29.17;;;16.93;;
11691;SDS011;33659;42.672;23.354;2023-11-21T09:40:23;24.07;;;15.03;;
11691;SDS011;33659;42.672;23.354;2023-11-21T09:42:54;29.87;;;15.63;;
11691;SDS011;33659;42.672;23.354;2023-11-21T09:45:24;22.33;;;13.67;;
11691;SDS011;33659;42.672;23.354;2023-11-21T09:47:52;23.27;;;14.10;;
11691;SDS011;33659;42.672;23.354;2023-11-21T09:50:22;25.10;;;13.83;;
11691;SDS011;33659;42.672;23.354;2023-11-21T09:52:53;19.67;;;12.70;;
11691;SDS011;33659;42.672;23.354;2023-11-21T09:55:24;18.00;;;11.50;;
11691;SDS011;33659;42.672;23.354;2023-11-21T09:57:54;19.87;;;12.40;;
11691;SDS011;33659;42.672;23.354;2023-11-21T10:00:30;17.77;;;10.83;;
11691;SDS011;33659;42.672;23.354;2023-11-21T10:02:58;18.93;;;11.33;;
11691;SDS011;33659;42.672;23.354;2023-11-21T10:05:26;16.47;;;10.53;;
11691;SDS011;33659;42.672;23.354;2023-11-21T10:07:53;19.83;;;10.40;;
11691;SDS011;33659;42.672;23.354;2023-11-21T10:10:23;16.40;;;9.83;;
11691;SDS011;33659;42.672;23.354;2023-11-21T10:12:52;16.23;;;9.80;;
11691;SDS011;33659;42.672;23.354;2023-11-21T10:15:23;15.43;;;8.80;;
11691;SDS011;33659;42.672;23.354;2023-11-21T10:17:51;12.00;;;8.63;;
11691;SDS011;33659;42.672;23.354;2023-11-21T10:20:19;15.30;;;8.70;;
11691;SDS011;33659;42.672;23.354;2023-11-21T10:22:47;14.70;;;8.30;;
11691;SDS011;33659;42.672;23.354;2023-11-21T10:25:14;16.80;;;8.50;;
11691;SDS011;33659;42.672;23.354;2023-11-21T10:27:43;12.23;;;8.50;;
11691;SDS011;33659;42.672;23.354;2023-11-21T10:30:16;12.50;;;8.23;;
11691;SDS011;33659;42.672;23.354;2023-11-21T10:32:43;15.40;;;8.45;;
11691;SDS011;33659;42.672;23.354;2023-11-21T10:35:10;14.32;;;9.25;;
11691;SDS011;33659;42.672;23.354;2023-11-21T10:37:37;11.25;;;7.82;;
11691;SDS011;33659;42.672;23.354;2023-11-21T10:40:07;13.55;;;8.15;;
11691;SDS011;33659;42.672;23.354;2023-11-21T10:42:37;11.52;;;8.05;;
11691;SDS011;33659;42.672;23.354;2023-11-21T10:45:03;15.77;;;7.35;;
11691;SDS011;33659;42.672;23.354;2023-11-21T10:47:37;11.35;;;7.53;;
11691;SDS011;33659;42.672;23.354;2023-11-21T10:50:05;16.58;;;6.75;;
11691;SDS011;33659;42.672;23.354;2023-11-21T10:52:35;8.68;;;6.85;;
11691;SDS011;33659;42.672;23.354;2023-11-21T10:55:09;13.23;;;7.60;;
11691;SDS011;33659;42.672;23.354;2023-11-21T10:57:43;13.75;;;7.55;;
11691;SDS011;33659;42.672;23.354;2023-11-21T11:00:13;13.45;;;7.68;;
11691;SDS011;33659;42.672;23.354;2023-11-21T11:02:44;15.70;;;8.13;;
11691;SDS011;33659;42.672;23.354;2023-11-21T11:05:13;11.13;;;8.05;;
11691;SDS011;33659;42.672;23.354;2023-11-21T11:07:45;15.05;;;7.72;;
11691;SDS011;33659;42.672;23.354;2023-11-21T11:10:19;16.42;;;7.45;;
11691;SDS011;33659;42.672;23.354;2023-11-21T11:12:47;12.98;;;7.38;;
11691;SDS011;33659;42.672;23.354;2023-11-21T11:15:15;15.20;;;6.65;;
11691;SDS011;33659;42.672;23.354;2023-11-21T11:17:42;12.00;;;6.23;;
11691;SDS011;33659;42.672;23.354;2023-11-21T11:20:10;10.60;;;6.70;;
11691;SDS011;33659;42.672;23.354;2023-11-21T11:22:41;13.52;;;6.53;;
11691;SDS011;33659;42.672;23.354;2023-11-21T11:28:19;11.98;;;6.93;;
11691;SDS011;33659;42.672;23.354;2023-11-21T11:30:53;11.95;;;7.13;;
11691;SDS011;33659;42.672;23.354;2023-11-21T11:33:31;19.35;;;7.45;;
11691;SDS011;33659;42.672;23.354;2023-11-21T11:36:06;12.90;;;7.55;;
11691;SDS011;33659;42.672;23.354;2023-11-21T11:38:37;8.63;;;6.40;;
11691;SDS011;33659;42.672;23.354;2023-11-21T11:41:06;12.03;;;7.23;;
11691;SDS011;33659;42.672;23.354;2023-11-21T11:43:34;13.67;;;7.57;;
11691;SDS011;33659;42.672;23.354;2023-11-21T11:46:09;12.77;;;7.80;;
11691;SDS011;33659;42.672;23.354;2023-11-21T11:48:38;15.43;;;7.50;;
11691;SDS011;33659;42.672;23.354;2023-11-21T11:51:06;15.43;;;9.43;;
11691;SDS011;33659;42.672;23.354;2023-11-21T11:53:39;15.17;;;8.93;;
11691;SDS011;33659;42.672;23.354;2023-11-21T11:56:24;17.77;;;9.00;;
11691;SDS011;33659;42.672;23.354;2023-11-21T11:58:53;24.93;;;10.20;;
11691;SDS011;33659;42.672;23.354;2023-11-21T12:01:22;11.57;;;8.47;;
11691;SDS011;33659;42.672;23.354;2023-11-21T12:06:56;16.00;;;9.60;;
11691;SDS011;33659;42.672;23.354;2023-11-21T12:09:27;16.67;;;10.03;;
11691;SDS011;33659;42.672;23.354;2023-11-21T12:11:56;18.17;;;9.83;;
11691;SDS011;33659;42.672;23.354;2023-11-21T12:14:23;15.20;;;9.97;;
11691;SDS011;33659;42.672;23.354;2023-11-21T12:16:50;19.03;;;10.93;;
11691;SDS011;33659;42.672;23.354;2023-11-21T12:19:18;24.63;;;10.97;;
11691;SDS011;33659;42.672;23.354;2023-11-21T12:21:47;22.10;;;11.57;;
11691;SDS011;33659;42.672;23.354;2023-11-21T12:24:15;20.07;;;12.47;;
11691;SDS011;33659;42.672;23.354;2023-11-21T12:26:42;27.70;;;13.77;;
11691;SDS011;33659;42.672;23.354;2023-11-21T12:29:11;20.07;;;13.53;;
11691;SDS011;33659;42.672;23.354;2023-11-21T12:31:38;29.60;;;14.87;;
11691;SDS011;33659;42.672;23.354;2023-11-21T12:34:06;27.10;;;13.00;;
11691;SDS011;33659;42.672;23.354;2023-11-21T12:36:34;23.07;;;13.93;;
11691;SDS011;33659;42.672;23.354;2023-11-21T12:39:01;27.57;;;13.23;;
11691;SDS011;33659;42.672;23.354;2023-11-21T12:41:28;23.77;;;13.77;;
11691;SDS011;33659;42.672;23.354;2023-11-21T12:43:56;21.13;;;13.03;;
11691;SDS011;33659;42.672;23.354;2023-11-21T12:46:25;32.90;;;15.97;;
11691;SDS011;33659;42.672;23.354;2023-11-21T12:48:56;24.30;;;14.87;;
11691;SDS011;33659;42.672;23.354;2023-11-21T12:51:23;27.63;;;14.87;;
11691;SDS011;33659;42.672;23.354;2023-11-21T12:53:50;26.87;;;14.47;;
11691;SDS011;33659;42.672;23.354;2023-11-21T12:56:17;30.70;;;14.00;;
11691;SDS011;33659;42.672;23.354;2023-11-21T12:58:45;28.57;;;14.77;;
11691;SDS011;33659;42.672;23.354;2023-11-21T13:01:13;29.67;;;14.03;;
11691;SDS011;33659;42.672;23.354;2023-11-21T13:03:47;26.33;;;13.40;;
11691;SDS011;33659;42.672;23.354;2023-11-21T13:06:16;31.07;;;14.53;;
11691;SDS011;33659;42.672;23.354;2023-11-21T13:08:45;21.87;;;14.60;;
11691;SDS011;33659;42.672;23.354;2023-11-21T13:11:11;31.47;;;14.87;;
11691;SDS011;33659;42.672;23.354;2023-11-21T13:13:40;25.93;;;14.93;;
11691;SDS011;33659;42.672;23.354;2023-11-21T13:16:07;27.40;;;13.83;;
11691;SDS011;33659;42.672;23.354;2023-11-21T13:18:35;22.60;;;14.30;;
11691;SDS011;33659;42.672;23.354;2023-11-21T13:21:03;28.20;;;14.73;;
11691;SDS011;33659;42.672;23.354;2023-11-21T13:23:35;23.57;;;15.23;;
11691;SDS011;33659;42.672;23.354;2023-11-21T13:26:02;24.33;;;13.93;;
11691;SDS011;33659;42.672;23.354;2023-11-21T13:28:30;25.53;;;15.60;;
11691;SDS011;33659;42.672;23.354;2023-11-21T13:30:58;23.00;;;13.43;;
11691;SDS011;33659;42.672;23.354;2023-11-21T13:33:28;27.13;;;14.27;;
11691;SDS011;33659;42.672;23.354;2023-11-21T13:35:55;28.80;;;14.40;;
11691;SDS011;33659;42.672;23.354;2023-11-21T13:38:24;33.73;;;15.17;;
11691;SDS011;33659;42.672;23.354;2023-11-21T13:40:55;25.93;;;15.10;;
11691;SDS011;33659;42.672;23.354;2023-11-21T13:43:24;25.77;;;14.90;;
11691;SDS011;33659;42.672;23.354;2023-11-21T13:45:54;27.80;;;15.33;;
11691;SDS011;33659;42.672;23.354;2023-11-21T13:48:25;22.13;;;13.57;;
11691;SDS011;33659;42.672;23.354;2023-11-21T13:50:59;26.73;;;14.50;;
11691;SDS011;33659;42.672;23.354;2023-11-21T13:53:36;25.30;;;14.97;;
11691;SDS011;33659;42.672;23.354;2023-11-21T13:56:04;24.53;;;15.27;;
11691;SDS011;33659;42.672;23.354;2023-11-21T13:58:31;25.77;;;14.43;;
11691;SDS011;33659;42.672;23.354;2023-11-21T14:01:06;26.83;;;15.93;;
11691;SDS011;33659;42.672;23.354;2023-11-21T14:03:42;25.07;;;15.73;;
11691;SDS011;33659;42.672;23.354;2023-11-21T14:06:17;29.30;;;16.73;;
11691;SDS011;33659;42.672;23.354;2023-11-21T14:08:50;24.90;;;14.30;;
11691;SDS011;33659;42.672;23.354;2023-11-21T14:11:18;24.73;;;13.03;;
11691;SDS011;33659;42.672;23.354;2023-11-21T14:13:47;23.80;;;11.60;;
11691;SDS011;33659;42.672;23.354;2023-11-21T14:16:13;22.87;;;12.63;;
11691;SDS011;33659;42.672;23.354;2023-11-21T14:18:42;18.70;;;11.93;;
11691;SDS011;33659;42.672;23.354;2023-11-21T14:21:18;24.43;;;13.47;;
11691;SDS011;33659;42.672;23.354;2023-11-21T14:23:44;23.30;;;13.60;;
11691;SDS011;33659;42.672;23.354;2023-11-21T14:26:13;25.67;;;14.57;;